Time;durP1;ratioP1;P1;durP2;ratioP2;P2;SDS_P1;SDS_P2;PMS_P1;PMS_P2;Temp;Humidity;BMP_temperature;BMP_pressure;BME280_temperature;BME280_humidity;BME280_pressure;Samples;Min_cycle;Max_cycle;Signal;HPM_P1;HPM_P2
2022/09/12 00:00:14;;;;;;;;;;;;;;;;;;2133183;27;19979;-45
2022/09/12 00:01:15;;;;;;;;;;;;;;;;;;2133090;27;19923;-46
2022/09/12 00:02:16;;;;;;;;;;;;;;;;;;2132899;27;19923;-44
2022/09/12 00:03:17;;;;;;;;;;;;;;;;;;2132919;27;19937;-44
2022/09/12 00:04:18;;;;;;;;;;;;;;;;;;2132919;27;19923;-43
2022/09/12 00:05:19;;;;;;;;;;;;;;;;;;2133162;27;19967;-46
2022/09/12 00:06:20;;;;;;;;;;;;;;;;;;2132977;27;19974;-46
2022/09/12 00:07:23;;;;;;;;;;;;;;;;;;2133390;27;19951;-42
2022/09/12 00:08:24;;;;;;;;;;;;;;;;;;2133005;27;20018;-42
2022/09/12 00:09:24;;;;;;;;;;;;;;;;;;2132985;27;19923;-42
2022/09/12 00:10:25;;;;;;;;;;;;;;;;;;2133090;27;19959;-43
2022/09/12 00:11:26;;;;;;;;;;;;;;;;;;2129139;27;20384;-42
2022/09/12 00:12:27;;;;;;;;;;;;;;;;;;2124408;28;19998;-42
2022/09/12 00:13:28;;;;;;;;;;;;;;;;;;2132275;27;19930;-42
2022/09/12 00:14:29;;;;;;;;;;;;;;;;;;2132959;27;19959;-42
2022/09/12 00:15:29;;;;;;;;;;;;;;;;;;2133006;27;20018;-43
2022/09/12 00:16:30;;;;;;;;;;;;;;;;;;2132994;27;19930;-42
2022/09/12 00:17:31;;;;;;;;;;;;;;;;;;2133009;27;19931;-42
2022/09/12 00:18:32;;;;;;;;;;;;;;;;;;2132975;27;19923;-42
2022/09/12 00:19:33;;;;;;;;;;;;;;;;;;2132973;27;19997;-42
2022/09/12 00:20:34;;;;;;;;;;;;;;;;;;2133009;27;20377;-42
2022/09/12 00:21:34;;;;;;;;;;;;;;;;;;2132955;27;19971;-43
2022/09/12 00:22:35;;;;;;;;;;;;;;;;;;2132777;27;20299;-43
2022/09/12 00:23:36;;;;;;;;;;;;;;;;;;2133052;27;19929;-43
2022/09/12 00:24:39;;;;;;;;;;;;;;;;;;2132837;27;19929;-43
2022/09/12 00:25:40;;;;;;;;;;;;;;;;;;2133024;27;19923;-42
2022/09/12 00:26:41;;;;;;;;;;;;;;;;;;2132859;27;19923;-43
2022/09/12 00:27:42;;;;;;;;;;;;;;;;;;2132980;27;19923;-43
2022/09/12 00:28:42;;;;;;;;;;;;;;;;;;2132809;27;20276;-42
2022/09/12 00:29:43;;;;;;;;;;;;;;;;;;2132863;27;19923;-43
2022/09/12 00:30:44;;;;;;;;;;;;;;;;;;2132971;27;19939;-42
2022/09/12 00:31:45;;;;;;;;;;;;;;;;;;2132789;27;20387;-43
2022/09/12 00:32:46;;;;;;;;;;;;;;;;;;2132873;27;19927;-42
2022/09/12 00:33:46;;;;;;;;;;;;;;;;;;2132777;27;19923;-42
2022/09/12 00:34:47;;;;;;;;;;;;;;;;;;2133046;27;19923;-44
2022/09/12 00:35:48;;;;;;;;;;;;;;;;;;2132819;27;19930;-44
2022/09/12 00:36:49;;;;;;;;;;;;;;;;;;2133180;27;19976;-43
2022/09/12 00:37:50;;;;;;;;;;;;;;;;;;2132868;27;19923;-42
2022/09/12 00:38:51;;;;;;;;;;;;;;;;;;2132926;27;20322;-42
2022/09/12 00:39:52;;;;;;;;;;;;;;;;;;2132772;27;20254;-42
2022/09/12 00:40:53;;;;;;;;;;;;;;;;;;2132903;27;19923;-43
2022/09/12 00:41:53;;;;;;;;;;;;;;;;;;2132683;27;20387;-43
2022/09/12 00:42:54;;;;;;;;;;;;;;;;;;2132668;27;19969;-42
2022/09/12 00:43:55;;;;;;;;;;;;;;;;;;2132775;27;19923;-42
2022/09/12 00:44:56;;;;;;;;;;;;;;;;;;2132746;27;19923;-42
2022/09/12 00:45:57;;;;;;;;;;;;;;;;;;2132720;27;19927;-42
2022/09/12 00:46:58;;;;;;;;;;;;;;;;;;2132763;27;19923;-42
2022/09/12 00:47:58;;;;;;;;;;;;;;;;;;2132875;27;19922;-43
2022/09/12 00:48:59;;;;;;;;;;;;;;;;;;2132971;27;19923;-43
2022/09/12 00:50:00;;;;;;;;;;;;;;;;;;2132851;27;19923;-43
2022/09/12 00:51:01;;;;;;;;;;;;;;;;;;2132778;27;19923;-42
2022/09/12 00:52:02;;;;;;;;;;;;;;;;;;2132837;27;19923;-43
2022/09/12 00:53:03;;;;;;;;;;;;;;;;;;2132886;27;19975;-43
2022/09/12 00:54:03;;;;;;;;;;;;;;;;;;2132668;27;19931;-42
2022/09/12 00:55:04;;;;;;;;;;;;;;;;;;2132656;27;19930;-43
2022/09/12 00:56:05;;;;;;;;;;;;;;;;;;2132848;27;19924;-43
2022/09/12 00:57:06;;;;;;;;;;;;;;;;;;2132803;27;19923;-43
2022/09/12 00:58:07;;;;;;;;;;;;;;;;;;2132727;27;19923;-42
2022/09/12 00:59:07;;;;;;;;;;;;;;;;;;2132721;27;19930;-42
2022/09/12 01:00:13;;;;;;;;;;;;;;;;;;2132621;27;20381;-43
2022/09/12 01:01:14;;;;;;;;;;;;;;;;;;2132845;27;19975;-43
2022/09/12 01:02:15;;;;;;;;;;;;;;;;;;2132554;27;20291;-43
2022/09/12 01:03:16;;;;;;;;;;;;;;;;;;2132725;27;19924;-43
2022/09/12 01:04:16;;;;;;;;;;;;;;;;;;2132622;27;19923;-43
2022/09/12 01:05:17;;;;;;;;;;;;;;;;;;2132608;27;20018;-43
2022/09/12 01:06:18;;;;;;;;;;;;;;;;;;2131775;27;19924;-43
2022/09/12 01:07:19;;;;;;;;;;;;;;;;;;2130626;27;19923;-43
2022/09/12 01:08:20;;;;;;;;;;;;;;;;;;2124096;28;20060;-43
2022/09/12 01:09:21;;;;;;;;;;;;;;;;;;2128716;27;19971;-43
2022/09/12 01:10:21;;;;;;;;;;;;;;;;;;2132755;27;20376;-43
2022/09/12 01:11:22;;;;;;;;;;;;;;;;;;2129338;27;20490;-42
2022/09/12 01:12:23;;;;;;;;;;;;;;;;;;2124040;28;19929;-43
2022/09/12 01:13:24;;;;;;;;;;;;;;;;;;2124159;28;20394;-43
2022/09/12 01:14:24;;;;;;;;;;;;;;;;;;2123923;28;19923;-43
2022/09/12 01:15:26;;;;;;;;;;;;;;;;;;2123996;28;19923;-43
2022/09/12 01:16:26;;;;;;;;;;;;;;;;;;2123933;27;19923;-42
2022/09/12 01:17:27;;;;;;;;;;;;;;;;;;2123987;28;19930;-43
2022/09/12 01:18:28;;;;;;;;;;;;;;;;;;2123950;28;19927;-43
2022/09/12 01:19:30;;;;;;;;;;;;;;;;;;2124000;28;19923;-43
2022/09/12 01:20:31;;;;;;;;;;;;;;;;;;2123938;28;20288;-43
2022/09/12 01:21:33;;;;;;;;;;;;;;;;;;2124113;27;19923;-43
2022/09/12 01:22:34;;;;;;;;;;;;;;;;;;2123794;28;20440;-43
2022/09/12 01:23:35;;;;;;;;;;;;;;;;;;2124065;28;19976;-43
2022/09/12 01:24:36;;;;;;;;;;;;;;;;;;2123961;28;19946;-43
2022/09/12 01:25:37;;;;;;;;;;;;;;;;;;2124128;28;19977;-43
2022/09/12 01:26:37;;;;;;;;;;;;;;;;;;2123824;27;20013;-43
2022/09/12 01:27:38;;;;;;;;;;;;;;;;;;2123936;28;19938;-43
2022/09/12 01:28:39;;;;;;;;;;;;;;;;;;2123873;28;19923;-43
2022/09/12 01:29:40;;;;;;;;;;;;;;;;;;2123970;28;19931;-43
2022/09/12 01:30:41;;;;;;;;;;;;;;;;;;2124050;28;20069;-43
2022/09/12 01:31:41;;;;;;;;;;;;;;;;;;2123847;27;19930;-43
2022/09/12 01:32:42;;;;;;;;;;;;;;;;;;2124124;28;19923;-43
2022/09/12 01:33:43;;;;;;;;;;;;;;;;;;2124033;28;19988;-43
2022/09/12 01:34:44;;;;;;;;;;;;;;;;;;2123950;28;19931;-43
2022/09/12 01:35:44;;;;;;;;;;;;;;;;;;2123956;28;19924;-43
2022/09/12 01:36:47;;;;;;;;;;;;;;;;;;2123822;27;20015;-43
2022/09/12 01:37:48;;;;;;;;;;;;;;;;;;2124018;28;19924;-43
2022/09/12 01:38:49;;;;;;;;;;;;;;;;;;2123874;28;19924;-43
2022/09/12 01:39:50;;;;;;;;;;;;;;;;;;2123973;28;19930;-42
2022/09/12 01:40:52;;;;;;;;;;;;;;;;;;2123754;28;20295;-43
2022/09/12 01:41:53;;;;;;;;;;;;;;;;;;2123877;27;19923;-43
2022/09/12 01:42:55;;;;;;;;;;;;;;;;;;2123784;28;19927;-42
2022/09/12 01:43:56;;;;;;;;;;;;;;;;;;2124003;28;19923;-43
2022/09/12 01:44:57;;;;;;;;;;;;;;;;;;2123943;28;19965;-43
2022/09/12 01:45:58;;;;;;;;;;;;;;;;;;2123900;28;19923;-42
2022/09/12 01:46:59;;;;;;;;;;;;;;;;;;2123805;27;19930;-43
2022/09/12 01:47:59;;;;;;;;;;;;;;;;;;2123818;28;19923;-43
2022/09/12 01:49:00;;;;;;;;;;;;;;;;;;2123932;28;19923;-42
2022/09/12 01:50:01;;;;;;;;;;;;;;;;;;2123800;28;20320;-43
2022/09/12 01:51:02;;;;;;;;;;;;;;;;;;2123790;28;20113;-43
2022/09/12 01:52:03;;;;;;;;;;;;;;;;;;2123741;27;19946;-43
2022/09/12 01:53:04;;;;;;;;;;;;;;;;;;2124026;28;19927;-43
2022/09/12 01:54:05;;;;;;;;;;;;;;;;;;2123726;28;19973;-43
2022/09/12 01:55:06;;;;;;;;;;;;;;;;;;2123885;28;20552;-43
2022/09/12 01:56:10;;;;;;;;;;;;;;;;;;2123873;28;19923;-43
2022/09/12 01:57:10;;;;;;;;;;;;;;;;;;2123618;27;20337;-43
2022/09/12 01:58:11;;;;;;;;;;;;;;;;;;2123865;28;19972;-43
2022/09/12 01:59:12;;;;;;;;;;;;;;;;;;2123765;28;19968;-43
2022/09/12 02:00:13;;;;;;;;;;;;;;;;;;2123704;28;19952;-43
2022/09/12 02:01:15;;;;;;;;;;;;;;;;;;2123696;27;19968;-43
2022/09/12 02:02:16;;;;;;;;;;;;;;;;;;2123723;28;19968;-43
2022/09/12 02:03:17;;;;;;;;;;;;;;;;;;2123696;28;20292;-42
2022/09/12 02:04:18;;;;;;;;;;;;;;;;;;2123720;27;19923;-43
2022/09/12 02:05:19;;;;;;;;;;;;;;;;;;2126087;27;19930;-43
2022/09/12 02:06:19;;;;;;;;;;;;;;;;;;2132303;27;20295;-42
2022/09/12 02:07:20;;;;;;;;;;;;;;;;;;2132349;27;19927;-43
2022/09/12 02:08:21;;;;;;;;;;;;;;;;;;2132311;27;20338;-43
2022/09/12 02:09:22;;;;;;;;;;;;;;;;;;2132348;27;19978;-43
2022/09/12 02:10:23;;;;;;;;;;;;;;;;;;2132254;27;20280;-43
2022/09/12 02:11:23;;;;;;;;;;;;;;;;;;2128691;27;19967;-43
2022/09/12 02:12:24;;;;;;;;;;;;;;;;;;2123614;28;19930;-43
2022/09/12 02:13:25;;;;;;;;;;;;;;;;;;2123769;28;19924;-43
2022/09/12 02:14:26;;;;;;;;;;;;;;;;;;2123712;28;19923;-43
2022/09/12 02:15:27;;;;;;;;;;;;;;;;;;2123709;28;19928;-43
2022/09/12 02:16:27;;;;;;;;;;;;;;;;;;2123660;27;19924;-43
2022/09/12 02:17:28;;;;;;;;;;;;;;;;;;2123373;27;19923;-43
2022/09/12 02:18:29;;;;;;;;;;;;;;;;;;2123439;28;19924;-42
2022/09/12 02:19:30;;;;;;;;;;;;;;;;;;2123587;28;19974;-43
2022/09/12 02:20:31;;;;;;;;;;;;;;;;;;2123668;28;20329;-43
2022/09/12 02:21:48;;;;;;;;;;;;;;;;;;2123485;27;19931;-43
2022/09/12 02:22:48;;;;;;;;;;;;;;;;;;2123414;28;19968;-43
2022/09/12 02:23:49;;;;;;;;;;;;;;;;;;2123526;28;19923;-43
2022/09/12 02:24:50;;;;;;;;;;;;;;;;;;2123666;28;19952;-42
2022/09/12 02:25:51;;;;;;;;;;;;;;;;;;2123495;28;19974;-42
2022/09/12 02:26:52;;;;;;;;;;;;;;;;;;2123700;27;19923;-43
2022/09/12 02:27:53;;;;;;;;;;;;;;;;;;2123717;28;19955;-43
2022/09/12 02:28:53;;;;;;;;;;;;;;;;;;2123660;28;19952;-43
2022/09/12 02:29:54;;;;;;;;;;;;;;;;;;2123647;28;19988;-43
2022/09/12 02:30:55;;;;;;;;;;;;;;;;;;2123453;28;19931;-43
2022/09/12 02:31:56;;;;;;;;;;;;;;;;;;2123489;27;19967;-43
2022/09/12 02:32:57;;;;;;;;;;;;;;;;;;2123394;28;19982;-43
2022/09/12 02:33:58;;;;;;;;;;;;;;;;;;2123590;28;19930;-42
2022/09/12 02:34:59;;;;;;;;;;;;;;;;;;2123520;28;20342;-43
2022/09/12 02:36:00;;;;;;;;;;;;;;;;;;2123563;28;19931;-43
2022/09/12 02:37:01;;;;;;;;;;;;;;;;;;2123375;27;20430;-43
2022/09/12 02:38:02;;;;;;;;;;;;;;;;;;2123606;28;20374;-42
2022/09/12 02:39:03;;;;;;;;;;;;;;;;;;2123425;28;19930;-43
2022/09/12 02:40:05;;;;;;;;;;;;;;;;;;2123554;28;20365;-42
2022/09/12 02:41:06;;;;;;;;;;;;;;;;;;2123584;28;19927;-42
2022/09/12 02:42:07;;;;;;;;;;;;;;;;;;2123252;27;19923;-43
2022/09/12 02:43:08;;;;;;;;;;;;;;;;;;2123555;28;19923;-43
2022/09/12 02:44:09;;;;;;;;;;;;;;;;;;2123414;28;19935;-43
2022/09/12 02:45:11;;;;;;;;;;;;;;;;;;2123608;28;19923;-43
2022/09/12 02:46:12;;;;;;;;;;;;;;;;;;2123418;28;19931;-43
2022/09/12 02:47:12;;;;;;;;;;;;;;;;;;2123509;27;19946;-42
2022/09/12 02:48:13;;;;;;;;;;;;;;;;;;2123429;28;19977;-43
2022/09/12 02:49:14;;;;;;;;;;;;;;;;;;2123334;28;20026;-42
2022/09/12 02:50:15;;;;;;;;;;;;;;;;;;2123485;28;20379;-43
2022/09/12 02:51:16;;;;;;;;;;;;;;;;;;2123410;27;20421;-43
2022/09/12 02:52:20;;;;;;;;;;;;;;;;;;2123316;28;20388;-43
2022/09/12 02:53:21;;;;;;;;;;;;;;;;;;2123339;28;19923;-42
2022/09/12 02:54:22;;;;;;;;;;;;;;;;;;2123518;28;19930;-42
2022/09/12 02:55:23;;;;;;;;;;;;;;;;;;2123233;28;19924;-42
2022/09/12 02:56:24;;;;;;;;;;;;;;;;;;2123436;27;19988;-42
2022/09/12 02:57:25;;;;;;;;;;;;;;;;;;2123342;28;19988;-42
2022/09/12 02:58:26;;;;;;;;;;;;;;;;;;2123298;28;19923;-42
2022/09/12 02:59:26;;;;;;;;;;;;;;;;;;2123361;28;19924;-42
2022/09/12 03:00:28;;;;;;;;;;;;;;;;;;2123281;27;19969;-42
2022/09/12 03:01:28;;;;;;;;;;;;;;;;;;2124927;27;19927;-42
2022/09/12 03:02:29;;;;;;;;;;;;;;;;;;2131934;27;20306;-42
2022/09/12 03:03:30;;;;;;;;;;;;;;;;;;2131972;27;19923;-42
2022/09/12 03:04:31;;;;;;;;;;;;;;;;;;2131810;27;19923;-42
2022/09/12 03:05:32;;;;;;;;;;;;;;;;;;2131922;27;19923;-42
2022/09/12 03:06:32;;;;;;;;;;;;;;;;;;2131763;27;20234;-42
2022/09/12 03:07:34;;;;;;;;;;;;;;;;;;2131943;27;20025;-42
2022/09/12 03:08:35;;;;;;;;;;;;;;;;;;2132105;27;19931;-42
2022/09/12 03:09:35;;;;;;;;;;;;;;;;;;2131854;27;20383;-42
2022/09/12 03:10:36;;;;;;;;;;;;;;;;;;2131746;27;19985;-41
2022/09/12 03:11:37;;;;;;;;;;;;;;;;;;2126363;27;19923;-42
2022/09/12 03:12:38;;;;;;;;;;;;;;;;;;2123638;28;19980;-42
2022/09/12 03:13:38;;;;;;;;;;;;;;;;;;2123205;28;19924;-44
2022/09/12 03:14:39;;;;;;;;;;;;;;;;;;2123393;28;20269;-46
2022/09/12 03:15:40;;;;;;;;;;;;;;;;;;2123454;28;20380;-42
2022/09/12 03:16:41;;;;;;;;;;;;;;;;;;2123162;27;20292;-42
2022/09/12 03:17:42;;;;;;;;;;;;;;;;;;2123256;28;19970;-41
2022/09/12 03:18:43;;;;;;;;;;;;;;;;;;2123338;28;20329;-41
2022/09/12 03:19:44;;;;;;;;;;;;;;;;;;2123443;28;19997;-41
2022/09/12 03:20:45;;;;;;;;;;;;;;;;;;2123368;28;19927;-41
2022/09/12 03:21:45;;;;;;;;;;;;;;;;;;2123086;27;20029;-41
2022/09/12 03:22:46;;;;;;;;;;;;;;;;;;2123127;28;20023;-41
2022/09/12 03:23:51;;;;;;;;;;;;;;;;;;2123323;28;19923;-41
2022/09/12 03:24:52;;;;;;;;;;;;;;;;;;2123179;28;19969;-41
2022/09/12 03:25:52;;;;;;;;;;;;;;;;;;2123144;28;19923;-41
2022/09/12 03:26:54;;;;;;;;;;;;;;;;;;2123051;27;19924;-42
2022/09/12 03:27:54;;;;;;;;;;;;;;;;;;2123280;28;19927;-41
2022/09/12 03:28:55;;;;;;;;;;;;;;;;;;2123321;27;19976;-43
2022/09/12 03:29:56;;;;;;;;;;;;;;;;;;2123953;28;19932;-43
2022/09/12 03:30:58;;;;;;;;;;;;;;;;;;2124737;28;20337;-43
2022/09/12 03:31:59;;;;;;;;;;;;;;;;;;2124896;27;19924;-41
2022/09/12 03:33:00;;;;;;;;;;;;;;;;;;2125084;28;19924;-41
2022/09/12 03:34:00;;;;;;;;;;;;;;;;;;2131804;27;20033;-41
2022/09/12 03:35:01;;;;;;;;;;;;;;;;;;2133647;27;19944;-43
2022/09/12 03:36:02;;;;;;;;;;;;;;;;;;2133183;27;19976;-43
2022/09/12 03:37:03;;;;;;;;;;;;;;;;;;2133362;27;19970;-41
2022/09/12 03:38:04;;;;;;;;;;;;;;;;;;2133129;27;19930;-41
2022/09/12 03:39:05;;;;;;;;;;;;;;;;;;2133725;27;19927;-43
2022/09/12 03:40:05;;;;;;;;;;;;;;;;;;2133229;27;20372;-42
2022/09/12 03:41:07;;;;;;;;;;;;;;;;;;2133272;27;19966;-43
2022/09/12 03:42:07;;;;;;;;;;;;;;;;;;2133068;27;20061;-44
2022/09/12 03:43:08;;;;;;;;;;;;;;;;;;2133166;27;19972;-43
2022/09/12 03:44:09;;;;;;;;;;;;;;;;;;2133336;27;19923;-44
2022/09/12 03:45:10;;;;;;;;;;;;;;;;;;2133220;27;19930;-44
2022/09/12 03:46:11;;;;;;;;;;;;;;;;;;2133487;27;19930;-41
2022/09/12 03:47:12;;;;;;;;;;;;;;;;;;2133070;27;19931;-41
2022/09/12 03:48:12;;;;;;;;;;;;;;;;;;2133363;27;19930;-41
2022/09/12 03:49:13;;;;;;;;;;;;;;;;;;2133270;27;19923;-41
2022/09/12 03:50:14;;;;;;;;;;;;;;;;;;2133310;27;19931;-43
2022/09/12 03:51:15;;;;;;;;;;;;;;;;;;2133104;27;20033;-44
2022/09/12 03:52:16;;;;;;;;;;;;;;;;;;2133086;27;20395;-44
2022/09/12 03:53:17;;;;;;;;;;;;;;;;;;2133376;27;19923;-44
2022/09/12 03:54:17;;;;;;;;;;;;;;;;;;2133496;27;19975;-44
2022/09/12 03:55:18;;;;;;;;;;;;;;;;;;2133068;27;19931;-44
2022/09/12 03:56:19;;;;;;;;;;;;;;;;;;2129219;27;19963;-44
2022/09/12 03:57:20;;;;;;;;;;;;;;;;;;2124761;28;20311;-44
2022/09/12 03:58:21;;;;;;;;;;;;;;;;;;2131593;27;19927;-44
2022/09/12 03:59:22;;;;;;;;;;;;;;;;;;2133562;27;19930;-47
2022/09/12 04:00:22;;;;;;;;;;;;;;;;;;2133119;27;20013;-45
2022/09/12 04:01:23;;;;;;;;;;;;;;;;;;2133157;27;19955;-42
2022/09/12 04:02:24;;;;;;;;;;;;;;;;;;2133008;27;19927;-42
2022/09/12 04:03:25;;;;;;;;;;;;;;;;;;2132900;27;20347;-45
2022/09/12 04:04:26;;;;;;;;;;;;;;;;;;2133539;27;19963;-42
2022/09/12 04:05:27;;;;;;;;;;;;;;;;;;2132966;27;20288;-42
2022/09/12 04:06:28;;;;;;;;;;;;;;;;;;2133289;27;19923;-47
2022/09/12 04:07:29;;;;;;;;;;;;;;;;;;2133023;27;20053;-45
2022/09/12 04:08:30;;;;;;;;;;;;;;;;;;2133156;27;20282;-45
2022/09/12 04:09:31;;;;;;;;;;;;;;;;;;2133373;27;19923;-45
2022/09/12 04:10:31;;;;;;;;;;;;;;;;;;2133109;27;19930;-46
2022/09/12 04:11:34;;;;;;;;;;;;;;;;;;2128401;27;19992;-42
2022/09/12 04:12:35;;;;;;;;;;;;;;;;;;2124390;28;19924;-42
2022/09/12 04:13:36;;;;;;;;;;;;;;;;;;2124328;28;19923;-42
2022/09/12 04:14:37;;;;;;;;;;;;;;;;;;2124581;28;19951;-42
2022/09/12 04:15:38;;;;;;;;;;;;;;;;;;2124534;28;20387;-42
2022/09/12 04:16:39;;;;;;;;;;;;;;;;;;2124495;27;19930;-42
2022/09/12 04:17:40;;;;;;;;;;;;;;;;;;2124547;28;19966;-42
2022/09/12 04:18:40;;;;;;;;;;;;;;;;;;2124409;28;19929;-42
2022/09/12 04:19:41;;;;;;;;;;;;;;;;;;2124535;28;19966;-44
2022/09/12 04:20:42;;;;;;;;;;;;;;;;;;2124419;28;19923;-44
2022/09/12 04:21:43;;;;;;;;;;;;;;;;;;2124417;27;20321;-47
2022/09/12 04:22:44;;;;;;;;;;;;;;;;;;2124566;28;19934;-45
2022/09/12 04:23:45;;;;;;;;;;;;;;;;;;2124384;28;20034;-44
2022/09/12 04:24:45;;;;;;;;;;;;;;;;;;2124557;28;19924;-45
2022/09/12 04:25:46;;;;;;;;;;;;;;;;;;2124889;28;19930;-42
2022/09/12 04:26:47;;;;;;;;;;;;;;;;;;2124262;27;19988;-42
2022/09/12 04:27:48;;;;;;;;;;;;;;;;;;2124327;28;19930;-41
2022/09/12 04:28:49;;;;;;;;;;;;;;;;;;2124605;28;19956;-41
2022/09/12 04:29:52;;;;;;;;;;;;;;;;;;2124542;28;20296;-41
2022/09/12 04:30:53;;;;;;;;;;;;;;;;;;2124675;28;19928;-46
2022/09/12 04:31:54;;;;;;;;;;;;;;;;;;2124169;27;20310;-44
2022/09/12 04:32:54;;;;;;;;;;;;;;;;;;2124524;28;19935;-45
2022/09/12 04:33:55;;;;;;;;;;;;;;;;;;2124368;28;20378;-45
2022/09/12 04:34:56;;;;;;;;;;;;;;;;;;2124375;28;19923;-46
2022/09/12 04:35:57;;;;;;;;;;;;;;;;;;2124252;28;20299;-46
2022/09/12 04:36:58;;;;;;;;;;;;;;;;;;2124143;27;20333;-48
2022/09/12 04:37:59;;;;;;;;;;;;;;;;;;2124395;28;20022;-44
2022/09/12 04:38:59;;;;;;;;;;;;;;;;;;2124250;28;19923;-45
2022/09/12 04:40:00;;;;;;;;;;;;;;;;;;2124365;28;20423;-45
2022/09/12 04:41:01;;;;;;;;;;;;;;;;;;2124265;27;19931;-41
2022/09/12 04:42:03;;;;;;;;;;;;;;;;;;2124173;27;19923;-41
2022/09/12 04:43:05;;;;;;;;;;;;;;;;;;2124171;28;20368;-41
2022/09/12 04:44:06;;;;;;;;;;;;;;;;;;2124325;28;19931;-42
2022/09/12 04:45:07;;;;;;;;;;;;;;;;;;2124596;28;19958;-45
2022/09/12 04:46:08;;;;;;;;;;;;;;;;;;2124303;28;19927;-45
2022/09/12 04:47:09;;;;;;;;;;;;;;;;;;2124265;27;19984;-47
2022/09/12 04:48:10;;;;;;;;;;;;;;;;;;2124096;28;19996;-45
2022/09/12 04:49:10;;;;;;;;;;;;;;;;;;2124324;28;19930;-47
2022/09/12 04:50:11;;;;;;;;;;;;;;;;;;2124181;28;19947;-45
2022/09/12 04:51:12;;;;;;;;;;;;;;;;;;2124126;28;20403;-45
2022/09/12 04:52:13;;;;;;;;;;;;;;;;;;2124393;27;19923;-41
2022/09/12 04:53:14;;;;;;;;;;;;;;;;;;2124311;28;19930;-42
2022/09/12 04:54:15;;;;;;;;;;;;;;;;;;2128067;27;19927;-41
2022/09/12 04:55:15;;;;;;;;;;;;;;;;;;2132970;27;19923;-41
2022/09/12 04:56:16;;;;;;;;;;;;;;;;;;2132737;27;19935;-41
2022/09/12 04:57:17;;;;;;;;;;;;;;;;;;2132979;27;19923;-43
2022/09/12 04:58:18;;;;;;;;;;;;;;;;;;2132715;27;19931;-43
2022/09/12 04:59:19;;;;;;;;;;;;;;;;;;2132656;27;20376;-44
2022/09/12 05:00:20;;;;;;;;;;;;;;;;;;2132811;27;19923;-43
2022/09/12 05:01:21;;;;;;;;;;;;;;;;;;2132804;27;19923;-41
2022/09/12 05:02:21;;;;;;;;;;;;;;;;;;2132545;27;19924;-41
2022/09/12 05:03:22;;;;;;;;;;;;;;;;;;2132671;27;19975;-41
2022/09/12 05:04:23;;;;;;;;;;;;;;;;;;2132995;27;19991;-43
2022/09/12 05:05:24;;;;;;;;;;;;;;;;;;2132597;27;19923;-44
2022/09/12 05:06:25;;;;;;;;;;;;;;;;;;2132588;27;19927;-43
2022/09/12 05:07:26;;;;;;;;;;;;;;;;;;2132632;27;19923;-43
2022/09/12 05:08:27;;;;;;;;;;;;;;;;;;2132560;27;19933;-43
2022/09/12 05:09:28;;;;;;;;;;;;;;;;;;2132946;27;19974;-41
2022/09/12 05:10:29;;;;;;;;;;;;;;;;;;2132591;27;19923;-41
2022/09/12 05:11:30;;;;;;;;;;;;;;;;;;2128139;27;19983;-41
2022/09/12 05:12:51;;;;;;;;;;;;;;;;;;2124078;28;19927;-41
2022/09/12 05:13:52;;;;;;;;;;;;;;;;;;2124222;28;19924;-43
2022/09/12 05:14:53;;;;;;;;;;;;;;;;;;2123995;28;19958;-44
2022/09/12 05:15:54;;;;;;;;;;;;;;;;;;2124311;28;19923;-41
2022/09/12 05:16:58;;;;;;;;;;;;;;;;;;2124150;27;19946;-42
2022/09/12 05:17:59;;;;;;;;;;;;;;;;;;2124113;28;19960;-42
2022/09/12 05:19:00;;;;;;;;;;;;;;;;;;2124446;28;19923;-42
2022/09/12 05:20:01;;;;;;;;;;;;;;;;;;2124156;28;20010;-42
2022/09/12 05:21:01;;;;;;;;;;;;;;;;;;2124131;28;20264;-41
2022/09/12 05:22:03;;;;;;;;;;;;;;;;;;2124199;27;20356;-42
2022/09/12 05:23:04;;;;;;;;;;;;;;;;;;2123866;28;19930;-41
2022/09/12 05:24:05;;;;;;;;;;;;;;;;;;2123916;28;19927;-42
2022/09/12 05:25:06;;;;;;;;;;;;;;;;;;2123949;28;19946;-41
2022/09/12 05:26:07;;;;;;;;;;;;;;;;;;2123958;28;19963;-42
2022/09/12 05:27:08;;;;;;;;;;;;;;;;;;2124089;27;19928;-42
2022/09/12 05:28:08;;;;;;;;;;;;;;;;;;2123946;28;19930;-42
2022/09/12 05:29:09;;;;;;;;;;;;;;;;;;2124102;28;20026;-45
2022/09/12 05:30:10;;;;;;;;;;;;;;;;;;2124175;28;19923;-43
2022/09/12 05:31:11;;;;;;;;;;;;;;;;;;2124037;28;19930;-43
2022/09/12 05:32:11;;;;;;;;;;;;;;;;;;2123792;27;19923;-44
2022/09/12 05:33:12;;;;;;;;;;;;;;;;;;2123837;28;19924;-43
2022/09/12 05:34:13;;;;;;;;;;;;;;;;;;2124108;28;19923;-44
2022/09/12 05:35:14;;;;;;;;;;;;;;;;;;2123847;28;19927;-43
2022/09/12 05:36:16;;;;;;;;;;;;;;;;;;2123800;27;19950;-44
2022/09/12 05:37:17;;;;;;;;;;;;;;;;;;2123900;28;19923;-48
2022/09/12 05:38:18;;;;;;;;;;;;;;;;;;2123831;28;19989;-45
2022/09/12 05:39:19;;;;;;;;;;;;;;;;;;2124060;28;20015;-42
2022/09/12 05:40:20;;;;;;;;;;;;;;;;;;2124174;28;19930;-44
2022/09/12 05:41:21;;;;;;;;;;;;;;;;;;2123831;27;20348;-43
2022/09/12 05:42:25;;;;;;;;;;;;;;;;;;2123723;28;19928;-44
2022/09/12 05:43:26;;;;;;;;;;;;;;;;;;2124181;28;19978;-47
2022/09/12 05:44:27;;;;;;;;;;;;;;;;;;2123808;28;20269;-46
2022/09/12 05:45:28;;;;;;;;;;;;;;;;;;2123932;28;19923;-48
2022/09/12 05:46:29;;;;;;;;;;;;;;;;;;2123719;27;20001;-45
2022/09/12 05:47:29;;;;;;;;;;;;;;;;;;2123879;28;19923;-44
2022/09/12 05:48:31;;;;;;;;;;;;;;;;;;2123999;27;20439;-46
2022/09/12 05:49:32;;;;;;;;;;;;;;;;;;2123912;28;19976;-46
2022/09/12 05:50:33;;;;;;;;;;;;;;;;;;2128044;27;19923;-44
2022/09/12 05:51:34;;;;;;;;;;;;;;;;;;2132583;27;19927;-47
2022/09/12 05:52:35;;;;;;;;;;;;;;;;;;2131673;27;20027;-46
2022/09/12 05:53:36;;;;;;;;;;;;;;;;;;2132445;27;20353;-44
2022/09/12 05:54:37;;;;;;;;;;;;;;;;;;2132467;27;19931;-46
2022/09/12 05:55:40;;;;;;;;;;;;;;;;;;2132247;27;20387;-45
2022/09/12 05:56:41;;;;;;;;;;;;;;;;;;2132434;27;19923;-47
2022/09/12 05:57:42;;;;;;;;;;;;;;;;;;2132513;27;19927;-46
2022/09/12 05:58:43;;;;;;;;;;;;;;;;;;2132341;27;19975;-44
2022/09/12 05:59:44;;;;;;;;;;;;;;;;;;2132242;27;20295;-44
2022/09/12 06:00:45;;;;;;;;;;;;;;;;;;2132238;27;19927;-45
2022/09/12 06:01:46;;;;;;;;;;;;;;;;;;2132180;27;19975;-44
2022/09/12 06:02:46;;;;;;;;;;;;;;;;;;2132354;27;19923;-44
2022/09/12 06:03:47;;;;;;;;;;;;;;;;;;2132385;27;19981;-45
2022/09/12 06:04:48;;;;;;;;;;;;;;;;;;2132326;27;19923;-44
2022/09/12 06:05:49;;;;;;;;;;;;;;;;;;2132576;27;20348;-42
2022/09/12 06:06:51;;;;;;;;;;;;;;;;;;2132157;27;20375;-42
2022/09/12 06:07:52;;;;;;;;;;;;;;;;;;2132539;27;20084;-42
2022/09/12 06:08:53;;;;;;;;;;;;;;;;;;2132472;27;19923;-44
2022/09/12 06:09:54;;;;;;;;;;;;;;;;;;2132311;27;19923;-44
2022/09/12 06:10:56;;;;;;;;;;;;;;;;;;2131821;27;19987;-46
2022/09/12 06:12:02;;;;;;;;;;;;;;;;;;2123577;27;20372;-45
2022/09/12 06:13:03;;;;;;;;;;;;;;;;;;2123735;28;19929;-44
2022/09/12 06:14:04;;;;;;;;;;;;;;;;;;2123599;28;20343;-46
2022/09/12 06:15:04;;;;;;;;;;;;;;;;;;2123890;28;20212;-44
2022/09/12 06:16:05;;;;;;;;;;;;;;;;;;2123732;28;20415;-44
2022/09/12 06:17:06;;;;;;;;;;;;;;;;;;2123465;27;19927;-43
2022/09/12 06:18:07;;;;;;;;;;;;;;;;;;2123544;28;19924;-46
2022/09/12 06:19:08;;;;;;;;;;;;;;;;;;2123579;28;20464;-44
2022/09/12 06:20:10;;;;;;;;;;;;;;;;;;2123493;28;19923;-45
2022/09/12 06:21:11;;;;;;;;;;;;;;;;;;2123810;28;20384;-45
2022/09/12 06:22:12;;;;;;;;;;;;;;;;;;2123545;27;20032;-45
2022/09/12 06:23:13;;;;;;;;;;;;;;;;;;2123795;28;19976;-42
2022/09/12 06:24:14;;;;;;;;;;;;;;;;;;2123715;28;19928;-47
2022/09/12 06:25:15;;;;;;;;;;;;;;;;;;2123700;28;19931;-44
2022/09/12 06:26:16;;;;;;;;;;;;;;;;;;2123575;27;19946;-44
2022/09/12 06:27:17;;;;;;;;;;;;;;;;;;2123540;28;19924;-44
2022/09/12 06:28:18;;;;;;;;;;;;;;;;;;2123902;28;19924;-44
2022/09/12 06:29:19;;;;;;;;;;;;;;;;;;2123749;28;19931;-45
2022/09/12 06:30:20;;;;;;;;;;;;;;;;;;2123681;28;19923;-45
2022/09/12 06:31:25;;;;;;;;;;;;;;;;;;2123480;27;19927;-45
2022/09/12 06:32:26;;;;;;;;;;;;;;;;;;2123460;28;20391;-44
2022/09/12 06:33:27;;;;;;;;;;;;;;;;;;2123524;28;19931;-46
2022/09/12 06:34:29;;;;;;;;;;;;;;;;;;2123708;28;19981;-44
2022/09/12 06:35:30;;;;;;;;;;;;;;;;;;2123632;28;20288;-42
2022/09/12 06:36:31;;;;;;;;;;;;;;;;;;2123559;27;19962;-41
2022/09/12 06:37:32;;;;;;;;;;;;;;;;;;2123793;28;20279;-44
2022/09/12 06:38:33;;;;;;;;;;;;;;;;;;2123450;28;20068;-45
2022/09/12 06:39:35;;;;;;;;;;;;;;;;;;2123590;28;19973;-44
2022/09/12 06:40:36;;;;;;;;;;;;;;;;;;2123448;28;19931;-45
2022/09/12 06:41:37;;;;;;;;;;;;;;;;;;2123431;27;20288;-44
2022/09/12 06:42:41;;;;;;;;;;;;;;;;;;2123724;28;19924;-45
2022/09/12 06:43:43;;;;;;;;;;;;;;;;;;2123734;28;20325;-45
2022/09/12 06:44:44;;;;;;;;;;;;;;;;;;2124002;27;19927;-46
2022/09/12 06:45:45;;;;;;;;;;;;;;;;;;2132001;27;20406;-45
2022/09/12 06:46:46;;;;;;;;;;;;;;;;;;2131782;27;19923;-45
2022/09/12 06:47:47;;;;;;;;;;;;;;;;;;2131976;27;19923;-45
2022/09/12 06:48:48;;;;;;;;;;;;;;;;;;2132007;27;20033;-45
2022/09/12 06:49:49;;;;;;;;;;;;;;;;;;2131864;27;19954;-45
2022/09/12 06:50:50;;;;;;;;;;;;;;;;;;2132064;27;19930;-45
2022/09/12 06:51:51;;;;;;;;;;;;;;;;;;2131862;27;19946;-44
2022/09/12 06:52:52;;;;;;;;;;;;;;;;;;2132047;27;19929;-44
2022/09/12 06:53:53;;;;;;;;;;;;;;;;;;2131892;27;19923;-45
2022/09/12 06:54:54;;;;;;;;;;;;;;;;;;2132306;27;19923;-42
2022/09/12 06:55:55;;;;;;;;;;;;;;;;;;2131942;27;19931;-42
2022/09/12 06:56:56;;;;;;;;;;;;;;;;;;2131836;27;20264;-43